sensor_id;sensor_type;location;lat;lon;timestamp;P1;durP1;ratioP1;P2;durP2;ratioP2
1995;SDS011;38556;47.068;15.408;2023-08-31T00:00:10;26.80;;;25.10;;
1995;SDS011;38556;47.068;15.408;2023-08-31T00:02:38;26.83;;;25.13;;
1995;SDS011;38556;47.068;15.408;2023-08-31T00:05:07;26.70;;;25.00;;
1995;SDS011;38556;47.068;15.408;2023-08-31T00:07:36;26.97;;;25.27;;
1995;SDS011;38556;47.068;15.408;2023-08-31T00:10:03;26.30;;;24.50;;
1995;SDS011;38556;47.068;15.408;2023-08-31T00:12:35;25.40;;;23.80;;
1995;SDS011;38556;47.068;15.408;2023-08-31T00:15:03;26.97;;;25.27;;
1995;SDS011;38556;47.068;15.408;2023-08-31T00:17:31;27.13;;;25.43;;
1995;SDS011;38556;47.068;15.408;2023-08-31T00:19:58;25.87;;;24.17;;
1995;SDS011;38556;47.068;15.408;2023-08-31T00:22:26;26.43;;;24.83;;
1995;SDS011;38556;47.068;15.408;2023-08-31T00:24:55;26.87;;;25.07;;
1995;SDS011;38556;47.068;15.408;2023-08-31T00:27:23;26.67;;;24.97;;
1995;SDS011;38556;47.068;15.408;2023-08-31T00:29:50;27.20;;;25.50;;
1995;SDS011;38556;47.068;15.408;2023-08-31T00:32:17;27.40;;;25.70;;
1995;SDS011;38556;47.068;15.408;2023-08-31T00:34:48;28.10;;;25.90;;
1995;SDS011;38556;47.068;15.408;2023-08-31T00:37:15;27.57;;;25.70;;
1995;SDS011;38556;47.068;15.408;2023-08-31T00:39:44;27.27;;;25.60;;
1995;SDS011;38556;47.068;15.408;2023-08-31T00:42:13;27.10;;;25.50;;
1995;SDS011;38556;47.068;15.408;2023-08-31T00:44:41;27.50;;;25.70;;
1995;SDS011;38556;47.068;15.408;2023-08-31T00:47:08;27.70;;;26.00;;
1995;SDS011;38556;47.068;15.408;2023-08-31T00:49:36;26.10;;;24.50;;
1995;SDS011;38556;47.068;15.408;2023-08-31T00:52:04;26.50;;;24.80;;
1995;SDS011;38556;47.068;15.408;2023-08-31T00:54:32;27.20;;;25.50;;
1995;SDS011;38556;47.068;15.408;2023-08-31T00:56:59;27.30;;;25.33;;
1995;SDS011;38556;47.068;15.408;2023-08-31T00:59:28;27.43;;;25.63;;
1995;SDS011;38556;47.068;15.408;2023-08-31T01:01:57;27.10;;;25.37;;
1995;SDS011;38556;47.068;15.408;2023-08-31T01:04:32;27.00;;;25.10;;
1995;SDS011;38556;47.068;15.408;2023-08-31T01:07:09;25.60;;;23.97;;
1995;SDS011;38556;47.068;15.408;2023-08-31T01:09:47;27.30;;;25.50;;
1995;SDS011;38556;47.068;15.408;2023-08-31T01:12:26;26.77;;;25.00;;
1995;SDS011;38556;47.068;15.408;2023-08-31T01:15:02;26.23;;;24.63;;
1995;SDS011;38556;47.068;15.408;2023-08-31T01:17:33;27.20;;;25.40;;
1995;SDS011;38556;47.068;15.408;2023-08-31T01:20:08;26.73;;;25.03;;
1995;SDS011;38556;47.068;15.408;2023-08-31T01:22:38;26.90;;;25.30;;
1995;SDS011;38556;47.068;15.408;2023-08-31T01:25:12;26.17;;;24.57;;
1995;SDS011;38556;47.068;15.408;2023-08-31T01:27:39;26.50;;;24.90;;
1995;SDS011;38556;47.068;15.408;2023-08-31T01:30:08;30.53;;;27.63;;
1995;SDS011;38556;47.068;15.408;2023-08-31T01:32:36;26.97;;;25.37;;
1995;SDS011;38556;47.068;15.408;2023-08-31T01:35:03;27.00;;;25.30;;
1995;SDS011;38556;47.068;15.408;2023-08-31T01:37:34;28.03;;;26.23;;
1995;SDS011;38556;47.068;15.408;2023-08-31T01:40:09;27.77;;;26.07;;
1995;SDS011;38556;47.068;15.408;2023-08-31T01:42:41;28.00;;;26.20;;
1995;SDS011;38556;47.068;15.408;2023-08-31T01:45:10;28.67;;;26.87;;
1995;SDS011;38556;47.068;15.408;2023-08-31T01:47:40;30.03;;;27.80;;
1995;SDS011;38556;47.068;15.408;2023-08-31T01:50:08;28.07;;;26.20;;
1995;SDS011;38556;47.068;15.408;2023-08-31T01:52:36;28.07;;;26.27;;
1995;SDS011;38556;47.068;15.408;2023-08-31T01:55:03;27.97;;;26.27;;
1995;SDS011;38556;47.068;15.408;2023-08-31T01:57:33;28.20;;;26.40;;
1995;SDS011;38556;47.068;15.408;2023-08-31T02:00:00;27.70;;;26.00;;
1995;SDS011;38556;47.068;15.408;2023-08-31T02:02:27;27.13;;;25.43;;
1995;SDS011;38556;47.068;15.408;2023-08-31T02:04:54;28.10;;;26.40;;
1995;SDS011;38556;47.068;15.408;2023-08-31T02:07:21;27.40;;;25.60;;
1995;SDS011;38556;47.068;15.408;2023-08-31T02:09:49;27.50;;;25.60;;
1995;SDS011;38556;47.068;15.408;2023-08-31T02:12:16;27.50;;;25.60;;
1995;SDS011;38556;47.068;15.408;2023-08-31T02:14:45;27.33;;;25.63;;
1995;SDS011;38556;47.068;15.408;2023-08-31T02:17:12;27.77;;;26.00;;
1995;SDS011;38556;47.068;15.408;2023-08-31T02:19:39;27.93;;;26.13;;
1995;SDS011;38556;47.068;15.408;2023-08-31T02:22:06;29.30;;;27.40;;
1995;SDS011;38556;47.068;15.408;2023-08-31T02:24:34;27.50;;;25.80;;
1995;SDS011;38556;47.068;15.408;2023-08-31T02:27:01;28.33;;;26.47;;
1995;SDS011;38556;47.068;15.408;2023-08-31T02:29:28;27.23;;;25.60;;
1995;SDS011;38556;47.068;15.408;2023-08-31T02:31:57;27.27;;;25.57;;
1995;SDS011;38556;47.068;15.408;2023-08-31T02:34:25;27.13;;;25.43;;
1995;SDS011;38556;47.068;15.408;2023-08-31T02:36:52;28.63;;;26.53;;
1995;SDS011;38556;47.068;15.408;2023-08-31T02:39:19;27.40;;;25.70;;
1995;SDS011;38556;47.068;15.408;2023-08-31T02:41:47;27.50;;;25.70;;
1995;SDS011;38556;47.068;15.408;2023-08-31T02:44:14;27.00;;;25.30;;
1995;SDS011;38556;47.068;15.408;2023-08-31T02:46:41;27.27;;;25.67;;
1995;SDS011;38556;47.068;15.408;2023-08-31T02:49:10;27.00;;;25.40;;
1995;SDS011;38556;47.068;15.408;2023-08-31T02:51:37;27.53;;;25.83;;
1995;SDS011;38556;47.068;15.408;2023-08-31T02:54:04;27.00;;;25.27;;
1995;SDS011;38556;47.068;15.408;2023-08-31T02:56:32;27.40;;;25.70;;
1995;SDS011;38556;47.068;15.408;2023-08-31T02:58:59;27.87;;;26.07;;
1995;SDS011;38556;47.068;15.408;2023-08-31T03:01:27;28.77;;;26.97;;
1995;SDS011;38556;47.068;15.408;2023-08-31T03:03:54;29.10;;;27.30;;
1995;SDS011;38556;47.068;15.408;2023-08-31T03:06:23;27.90;;;26.20;;
1995;SDS011;38556;47.068;15.408;2023-08-31T03:08:50;27.70;;;25.90;;
1995;SDS011;38556;47.068;15.408;2023-08-31T03:11:17;28.90;;;26.93;;
1995;SDS011;38556;47.068;15.408;2023-08-31T03:13:44;28.60;;;26.80;;
1995;SDS011;38556;47.068;15.408;2023-08-31T03:16:12;27.90;;;25.93;;
1995;SDS011;38556;47.068;15.408;2023-08-31T03:18:39;28.53;;;26.73;;
1995;SDS011;38556;47.068;15.408;2023-08-31T03:21:06;27.77;;;26.07;;
1995;SDS011;38556;47.068;15.408;2023-08-31T03:23:35;28.90;;;26.80;;
1995;SDS011;38556;47.068;15.408;2023-08-31T03:26:06;29.53;;;27.73;;
1995;SDS011;38556;47.068;15.408;2023-08-31T03:28:34;29.43;;;27.43;;
1995;SDS011;38556;47.068;15.408;2023-08-31T03:31:01;29.03;;;27.13;;
1995;SDS011;38556;47.068;15.408;2023-08-31T03:33:29;29.67;;;27.70;;
1995;SDS011;38556;47.068;15.408;2023-08-31T03:35:59;28.57;;;26.80;;
1995;SDS011;38556;47.068;15.408;2023-08-31T03:38:27;28.73;;;26.93;;
1995;SDS011;38556;47.068;15.408;2023-08-31T03:40:55;28.60;;;26.80;;
1995;SDS011;38556;47.068;15.408;2023-08-31T03:43:23;27.87;;;25.90;;
1995;SDS011;38556;47.068;15.408;2023-08-31T03:45:53;29.17;;;27.33;;
1995;SDS011;38556;47.068;15.408;2023-08-31T03:48:22;27.60;;;25.90;;
1995;SDS011;38556;47.068;15.408;2023-08-31T03:50:49;27.57;;;25.53;;
1995;SDS011;38556;47.068;15.408;2023-08-31T03:53:17;28.00;;;26.30;;
1995;SDS011;38556;47.068;15.408;2023-08-31T03:55:44;27.40;;;25.70;;
1995;SDS011;38556;47.068;15.408;2023-08-31T03:58:13;28.17;;;26.47;;
1995;SDS011;38556;47.068;15.408;2023-08-31T04:00:41;32.93;;;30.83;;
1995;SDS011;38556;47.068;15.408;2023-08-31T04:03:08;31.17;;;29.27;;
1995;SDS011;38556;47.068;15.408;2023-08-31T04:05:35;30.50;;;28.50;;
1995;SDS011;38556;47.068;15.408;2023-08-31T04:08:03;30.27;;;28.37;;
1995;SDS011;38556;47.068;15.408;2023-08-31T04:10:31;29.30;;;27.50;;
1995;SDS011;38556;47.068;15.408;2023-08-31T04:12:58;29.67;;;27.87;;
1995;SDS011;38556;47.068;15.408;2023-08-31T04:15:27;29.73;;;27.63;;
1995;SDS011;38556;47.068;15.408;2023-08-31T04:17:56;29.20;;;27.30;;
1995;SDS011;38556;47.068;15.408;2023-08-31T04:20:23;29.87;;;27.97;;
1995;SDS011;38556;47.068;15.408;2023-08-31T04:22:50;31.07;;;29.27;;
1995;SDS011;38556;47.068;15.408;2023-08-31T04:25:18;29.40;;;27.60;;
1995;SDS011;38556;47.068;15.408;2023-08-31T04:27:45;29.67;;;27.87;;
1995;SDS011;38556;47.068;15.408;2023-08-31T04:30:12;30.63;;;28.70;;
1995;SDS011;38556;47.068;15.408;2023-08-31T04:32:42;30.37;;;28.47;;
1995;SDS011;38556;47.068;15.408;2023-08-31T04:35:09;28.50;;;26.77;;
1995;SDS011;38556;47.068;15.408;2023-08-31T04:37:37;29.53;;;27.73;;
1995;SDS011;38556;47.068;15.408;2023-08-31T04:40:04;29.43;;;27.37;;
1995;SDS011;38556;47.068;15.408;2023-08-31T04:42:34;28.90;;;27.10;;
1995;SDS011;38556;47.068;15.408;2023-08-31T04:45:02;29.17;;;27.37;;
1995;SDS011;38556;47.068;15.408;2023-08-31T04:47:30;28.50;;;26.80;;
1995;SDS011;38556;47.068;15.408;2023-08-31T04:50:00;28.97;;;27.17;;
1995;SDS011;38556;47.068;15.408;2023-08-31T04:52:28;29.37;;;27.57;;
1995;SDS011;38556;47.068;15.408;2023-08-31T04:54:56;28.87;;;26.97;;
1995;SDS011;38556;47.068;15.408;2023-08-31T04:57:23;29.63;;;27.83;;
1995;SDS011;38556;47.068;15.408;2023-08-31T04:59:51;29.90;;;28.10;;
1995;SDS011;38556;47.068;15.408;2023-08-31T05:02:18;30.00;;;28.20;;
1995;SDS011;38556;47.068;15.408;2023-08-31T05:04:46;29.80;;;28.00;;
1995;SDS011;38556;47.068;15.408;2023-08-31T05:07:15;30.80;;;28.90;;
1995;SDS011;38556;47.068;15.408;2023-08-31T05:09:42;30.07;;;28.27;;
1995;SDS011;38556;47.068;15.408;2023-08-31T05:12:09;30.07;;;27.60;;
1995;SDS011;38556;47.068;15.408;2023-08-31T05:14:36;29.80;;;28.00;;
1995;SDS011;38556;47.068;15.408;2023-08-31T05:17:05;30.27;;;28.37;;
1995;SDS011;38556;47.068;15.408;2023-08-31T05:19:32;31.87;;;30.03;;
1995;SDS011;38556;47.068;15.408;2023-08-31T05:22:00;31.30;;;29.40;;
1995;SDS011;38556;47.068;15.408;2023-08-31T05:24:29;29.87;;;28.07;;
1995;SDS011;38556;47.068;15.408;2023-08-31T05:26:56;29.70;;;27.90;;
1995;SDS011;38556;47.068;15.408;2023-08-31T05:29:23;29.27;;;27.40;;
1995;SDS011;38556;47.068;15.408;2023-08-31T05:31:51;30.23;;;28.20;;
1995;SDS011;38556;47.068;15.408;2023-08-31T05:34:20;29.43;;;27.53;;
1995;SDS011;38556;47.068;15.408;2023-08-31T05:36:48;29.40;;;27.30;;
1995;SDS011;38556;47.068;15.408;2023-08-31T05:39:15;28.37;;;26.50;;
1995;SDS011;38556;47.068;15.408;2023-08-31T05:41:44;29.07;;;27.07;;
1995;SDS011;38556;47.068;15.408;2023-08-31T05:44:11;31.07;;;28.87;;
1995;SDS011;38556;47.068;15.408;2023-08-31T05:46:39;30.10;;;28.07;;
1995;SDS011;38556;47.068;15.408;2023-08-31T05:49:06;30.30;;;28.20;;
1995;SDS011;38556;47.068;15.408;2023-08-31T05:51:34;30.33;;;27.80;;
1995;SDS011;38556;47.068;15.408;2023-08-31T05:54:01;29.13;;;27.33;;
1995;SDS011;38556;47.068;15.408;2023-08-31T05:56:29;29.87;;;27.97;;
1995;SDS011;38556;47.068;15.408;2023-08-31T05:58:57;31.60;;;29.63;;
1995;SDS011;38556;47.068;15.408;2023-08-31T06:01:25;34.00;;;31.70;;
1995;SDS011;38556;47.068;15.408;2023-08-31T06:03:52;32.07;;;29.87;;
1995;SDS011;38556;47.068;15.408;2023-08-31T06:06:19;32.13;;;30.13;;
1995;SDS011;38556;47.068;15.408;2023-08-31T06:08:46;29.50;;;27.60;;
1995;SDS011;38556;47.068;15.408;2023-08-31T06:11:14;30.40;;;28.40;;
1995;SDS011;38556;47.068;15.408;2023-08-31T06:13:41;29.87;;;27.90;;
1995;SDS011;38556;47.068;15.408;2023-08-31T06:16:10;29.67;;;27.87;;
1995;SDS011;38556;47.068;15.408;2023-08-31T06:18:37;28.97;;;27.07;;
1995;SDS011;38556;47.068;15.408;2023-08-31T06:21:05;29.27;;;27.47;;
1995;SDS011;38556;47.068;15.408;2023-08-31T06:23:32;29.70;;;27.80;;
1995;SDS011;38556;47.068;15.408;2023-08-31T06:25:59;30.63;;;28.63;;
1995;SDS011;38556;47.068;15.408;2023-08-31T06:28:26;29.87;;;27.77;;
1995;SDS011;38556;47.068;15.408;2023-08-31T06:30:54;34.37;;;31.97;;
1995;SDS011;38556;47.068;15.408;2023-08-31T06:33:22;31.03;;;28.80;;
1995;SDS011;38556;47.068;15.408;2023-08-31T06:35:50;30.30;;;28.30;;
1995;SDS011;38556;47.068;15.408;2023-08-31T06:38:17;30.90;;;29.00;;
1995;SDS011;38556;47.068;15.408;2023-08-31T06:40:44;30.97;;;28.83;;
1995;SDS011;38556;47.068;15.408;2023-08-31T06:43:13;31.33;;;29.33;;
1995;SDS011;38556;47.068;15.408;2023-08-31T06:45:40;31.30;;;29.20;;
1995;SDS011;38556;47.068;15.408;2023-08-31T06:48:08;30.60;;;28.40;;
1995;SDS011;38556;47.068;15.408;2023-08-31T06:50:36;29.07;;;27.20;;
1995;SDS011;38556;47.068;15.408;2023-08-31T06:53:03;30.33;;;28.17;;
1995;SDS011;38556;47.068;15.408;2023-08-31T06:55:31;30.00;;;28.03;;
1995;SDS011;38556;47.068;15.408;2023-08-31T06:58:00;29.50;;;27.60;;
1995;SDS011;38556;47.068;15.408;2023-08-31T07:00:28;30.47;;;28.37;;
1995;SDS011;38556;47.068;15.408;2023-08-31T07:02:58;29.60;;;27.60;;
1995;SDS011;38556;47.068;15.408;2023-08-31T07:05:25;30.30;;;28.27;;
1995;SDS011;38556;47.068;15.408;2023-08-31T07:07:56;30.30;;;28.10;;
1995;SDS011;38556;47.068;15.408;2023-08-31T07:10:23;31.67;;;29.63;;
1995;SDS011;38556;47.068;15.408;2023-08-31T07:12:51;29.53;;;27.70;;
1995;SDS011;38556;47.068;15.408;2023-08-31T07:15:18;29.97;;;27.97;;
1995;SDS011;38556;47.068;15.408;2023-08-31T07:17:46;29.60;;;27.47;;
1995;SDS011;38556;47.068;15.408;2023-08-31T07:20:13;28.87;;;26.77;;
1995;SDS011;38556;47.068;15.408;2023-08-31T07:22:40;29.77;;;27.77;;
1995;SDS011;38556;47.068;15.408;2023-08-31T07:25:09;28.20;;;26.40;;
1995;SDS011;38556;47.068;15.408;2023-08-31T07:27:37;29.47;;;27.67;;
1995;SDS011;38556;47.068;15.408;2023-08-31T07:30:05;29.53;;;27.63;;
1995;SDS011;38556;47.068;15.408;2023-08-31T07:32:33;28.70;;;27.00;;
1995;SDS011;38556;47.068;15.408;2023-08-31T07:35:00;28.33;;;26.50;;
1995;SDS011;38556;47.068;15.408;2023-08-31T07:37:30;29.83;;;27.73;;
1995;SDS011;38556;47.068;15.408;2023-08-31T07:39:57;29.83;;;27.93;;
1995;SDS011;38556;47.068;15.408;2023-08-31T07:42:26;28.83;;;27.03;;
1995;SDS011;38556;47.068;15.408;2023-08-31T07:44:54;30.47;;;28.37;;
1995;SDS011;38556;47.068;15.408;2023-08-31T07:47:21;29.57;;;27.47;;
1995;SDS011;38556;47.068;15.408;2023-08-31T07:49:48;28.30;;;26.60;;
1995;SDS011;38556;47.068;15.408;2023-08-31T07:52:16;28.90;;;27.23;;
1995;SDS011;38556;47.068;15.408;2023-08-31T07:54:43;28.33;;;26.43;;
1995;SDS011;38556;47.068;15.408;2023-08-31T07:57:11;30.13;;;27.33;;
1995;SDS011;38556;47.068;15.408;2023-08-31T07:59:39;30.10;;;28.20;;
1995;SDS011;38556;47.068;15.408;2023-08-31T08:02:07;28.93;;;27.13;;
1995;SDS011;38556;47.068;15.408;2023-08-31T08:04:34;28.40;;;26.60;;
1995;SDS011;38556;47.068;15.408;2023-08-31T08:07:02;28.43;;;26.63;;
1995;SDS011;38556;47.068;15.408;2023-08-31T08:09:29;28.13;;;26.33;;
1995;SDS011;38556;47.068;15.408;2023-08-31T08:11:57;28.80;;;26.93;;
1995;SDS011;38556;47.068;15.408;2023-08-31T08:14:24;28.57;;;26.60;;
1995;SDS011;38556;47.068;15.408;2023-08-31T08:16:53;28.77;;;26.97;;
1995;SDS011;38556;47.068;15.408;2023-08-31T08:19:23;29.50;;;27.60;;
1995;SDS011;38556;47.068;15.408;2023-08-31T08:21:51;29.87;;;27.90;;
1995;SDS011;38556;47.068;15.408;2023-08-31T08:24:18;33.10;;;30.80;;
1995;SDS011;38556;47.068;15.408;2023-08-31T08:26:45;28.83;;;26.90;;
1995;SDS011;38556;47.068;15.408;2023-08-31T08:29:12;30.00;;;27.90;;
1995;SDS011;38556;47.068;15.408;2023-08-31T08:31:41;28.17;;;26.37;;
1995;SDS011;38556;47.068;15.408;2023-08-31T08:34:10;26.87;;;25.27;;
1995;SDS011;38556;47.068;15.408;2023-08-31T08:36:38;28.97;;;27.07;;
1995;SDS011;38556;47.068;15.408;2023-08-31T08:39:05;27.57;;;25.70;;
1995;SDS011;38556;47.068;15.408;2023-08-31T08:41:32;29.10;;;26.90;;
1995;SDS011;38556;47.068;15.408;2023-08-31T08:44:02;29.13;;;27.30;;
1995;SDS011;38556;47.068;15.408;2023-08-31T08:46:30;34.70;;;32.37;;
1995;SDS011;38556;47.068;15.408;2023-08-31T08:48:59;31.33;;;29.53;;
1995;SDS011;38556;47.068;15.408;2023-08-31T08:51:30;32.37;;;30.47;;
1995;SDS011;38556;47.068;15.408;2023-08-31T08:53:58;28.83;;;26.83;;
1995;SDS011;38556;47.068;15.408;2023-08-31T08:56:26;29.13;;;27.10;;
1995;SDS011;38556;47.068;15.408;2023-08-31T08:58:54;26.77;;;25.13;;
1995;SDS011;38556;47.068;15.408;2023-08-31T09:01:22;27.40;;;25.70;;
1995;SDS011;38556;47.068;15.408;2023-08-31T09:03:49;27.70;;;26.00;;
1995;SDS011;38556;47.068;15.408;2023-08-31T09:06:18;28.50;;;26.80;;
1995;SDS011;38556;47.068;15.408;2023-08-31T09:08:52;27.90;;;26.07;;
1995;SDS011;38556;47.068;15.408;2023-08-31T09:11:21;29.27;;;27.57;;
1995;SDS011;38556;47.068;15.408;2023-08-31T09:13:48;27.57;;;25.87;;
1995;SDS011;38556;47.068;15.408;2023-08-31T09:16:26;27.43;;;25.77;;
1995;SDS011;38556;47.068;15.408;2023-08-31T09:18:54;26.37;;;24.60;;
1995;SDS011;38556;47.068;15.408;2023-08-31T09:21:22;27.60;;;25.80;;
1995;SDS011;38556;47.068;15.408;2023-08-31T09:24:03;29.00;;;27.10;;
1995;SDS011;38556;47.068;15.408;2023-08-31T09:26:36;27.40;;;25.67;;
1995;SDS011;38556;47.068;15.408;2023-08-31T09:29:04;27.73;;;25.83;;
1995;SDS011;38556;47.068;15.408;2023-08-31T09:31:32;27.13;;;25.43;;
1995;SDS011;38556;47.068;15.408;2023-08-31T09:33:59;28.17;;;26.23;;
1995;SDS011;38556;47.068;15.408;2023-08-31T09:36:28;27.43;;;25.63;;
1995;SDS011;38556;47.068;15.408;2023-08-31T09:38:56;29.10;;;27.20;;
1995;SDS011;38556;47.068;15.408;2023-08-31T09:41:26;26.27;;;24.67;;
1995;SDS011;38556;47.068;15.408;2023-08-31T09:43:53;25.80;;;24.20;;
1995;SDS011;38556;47.068;15.408;2023-08-31T09:46:21;27.57;;;25.57;;
1995;SDS011;38556;47.068;15.408;2023-08-31T09:48:48;29.40;;;27.60;;
1995;SDS011;38556;47.068;15.408;2023-08-31T09:51:16;27.83;;;26.23;;
1995;SDS011;38556;47.068;15.408;2023-08-31T09:53:48;27.30;;;25.60;;
1995;SDS011;38556;47.068;15.408;2023-08-31T09:56:21;28.10;;;26.40;;
1995;SDS011;38556;47.068;15.408;2023-08-31T09:58:51;27.07;;;25.47;;
1995;SDS011;38556;47.068;15.408;2023-08-31T10:01:19;28.97;;;27.27;;
1995;SDS011;38556;47.068;15.408;2023-08-31T10:03:46;27.80;;;26.20;;
1995;SDS011;38556;47.068;15.408;2023-08-31T10:06:14;26.63;;;25.03;;
1995;SDS011;38556;47.068;15.408;2023-08-31T10:08:41;26.37;;;24.77;;
1995;SDS011;38556;47.068;15.408;2023-08-31T10:11:09;25.90;;;24.30;;
1995;SDS011;38556;47.068;15.408;2023-08-31T10:13:39;26.30;;;24.60;;
1995;SDS011;38556;47.068;15.408;2023-08-31T10:16:09;26.80;;;25.10;;
1995;SDS011;38556;47.068;15.408;2023-08-31T10:18:37;27.77;;;26.07;;
1995;SDS011;38556;47.068;15.408;2023-08-31T10:21:05;26.17;;;24.47;;
1995;SDS011;38556;47.068;15.408;2023-08-31T10:23:32;27.00;;;25.20;;
1995;SDS011;38556;47.068;15.408;2023-08-31T10:26:02;26.07;;;24.40;;
1995;SDS011;38556;47.068;15.408;2023-08-31T10:28:29;27.10;;;25.47;;
1995;SDS011;38556;47.068;15.408;2023-08-31T10:31:07;26.97;;;25.37;;
1995;SDS011;38556;47.068;15.408;2023-08-31T10:33:39;27.33;;;25.63;;
1995;SDS011;38556;47.068;15.408;2023-08-31T10:36:14;27.17;;;25.40;;
1995;SDS011;38556;47.068;15.408;2023-08-31T10:38:42;27.47;;;25.77;;
1995;SDS011;38556;47.068;15.408;2023-08-31T10:41:19;26.40;;;24.80;;
1995;SDS011;38556;47.068;15.408;2023-08-31T10:43:47;26.67;;;24.90;;
1995;SDS011;38556;47.068;15.408;2023-08-31T10:46:19;27.30;;;25.47;;
1995;SDS011;38556;47.068;15.408;2023-08-31T10:48:57;26.60;;;24.90;;
1995;SDS011;38556;47.068;15.408;2023-08-31T10:51:26;26.97;;;25.27;;
1995;SDS011;38556;47.068;15.408;2023-08-31T10:54:05;26.43;;;24.70;;
1995;SDS011;38556;47.068;15.408;2023-08-31T10:56:42;25.30;;;23.80;;
1995;SDS011;38556;47.068;15.408;2023-08-31T10:59:40;26.07;;;24.47;;
1995;SDS011;38556;47.068;15.408;2023-08-31T11:02:11;26.10;;;24.50;;
1995;SDS011;38556;47.068;15.408;2023-08-31T11:04:54;26.13;;;24.53;;
1995;SDS011;38556;47.068;15.408;2023-08-31T11:07:26;25.50;;;23.97;;
1995;SDS011;38556;47.068;15.408;2023-08-31T11:10:05;25.50;;;23.90;;
1995;SDS011;38556;47.068;15.408;2023-08-31T11:12:37;27.07;;;25.30;;
1995;SDS011;38556;47.068;15.408;2023-08-31T11:15:05;26.37;;;24.77;;
1995;SDS011;38556;47.068;15.408;2023-08-31T11:17:36;28.07;;;26.37;;
1995;SDS011;38556;47.068;15.408;2023-08-31T11:20:05;26.67;;;25.07;;
1995;SDS011;38556;47.068;15.408;2023-08-31T11:22:38;24.53;;;22.93;;
1995;SDS011;38556;47.068;15.408;2023-08-31T11:25:06;25.73;;;24.13;;
1995;SDS011;38556;47.068;15.408;2023-08-31T11:27:35;25.67;;;24.07;;
1995;SDS011;38556;47.068;15.408;2023-08-31T11:30:02;28.47;;;26.47;;
1995;SDS011;38556;47.068;15.408;2023-08-31T11:32:31;27.33;;;25.43;;
1995;SDS011;38556;47.068;15.408;2023-08-31T11:34:59;25.13;;;23.53;;
1995;SDS011;38556;47.068;15.408;2023-08-31T11:37:29;26.23;;;24.40;;
1995;SDS011;38556;47.068;15.408;2023-08-31T11:39:56;25.40;;;23.90;;
1995;SDS011;38556;47.068;15.408;2023-08-31T11:42:26;25.47;;;23.80;;
1995;SDS011;38556;47.068;15.408;2023-08-31T11:44:54;26.33;;;24.73;;
1995;SDS011;38556;47.068;15.408;2023-08-31T11:47:22;26.00;;;24.30;;
1995;SDS011;38556;47.068;15.408;2023-08-31T11:49:50;26.10;;;24.43;;
1995;SDS011;38556;47.068;15.408;2023-08-31T11:52:19;26.60;;;24.80;;
1995;SDS011;38556;47.068;15.408;2023-08-31T11:54:47;25.63;;;23.70;;
1995;SDS011;38556;47.068;15.408;2023-08-31T11:57:20;25.10;;;23.60;;
1995;SDS011;38556;47.068;15.408;2023-08-31T11:59:54;25.50;;;23.90;;
1995;SDS011;38556;47.068;15.408;2023-08-31T12:02:22;25.77;;;23.80;;
1995;SDS011;38556;47.068;15.408;2023-08-31T12:04:49;25.53;;;23.83;;
1995;SDS011;38556;47.068;15.408;2023-08-31T12:07:17;25.80;;;24.20;;
1995;SDS011;38556;47.068;15.408;2023-08-31T12:09:46;25.10;;;23.60;;
1995;SDS011;38556;47.068;15.408;2023-08-31T12:12:13;25.47;;;23.87;;
1995;SDS011;38556;47.068;15.408;2023-08-31T12:14:43;24.77;;;23.10;;
1995;SDS011;38556;47.068;15.408;2023-08-31T12:17:10;25.07;;;23.47;;
1995;SDS011;38556;47.068;15.408;2023-08-31T12:19:38;25.40;;;23.80;;
1995;SDS011;38556;47.068;15.408;2023-08-31T12:22:05;25.57;;;23.80;;
1995;SDS011;38556;47.068;15.408;2023-08-31T12:24:40;26.13;;;24.63;;
1995;SDS011;38556;47.068;15.408;2023-08-31T12:27:08;26.27;;;24.67;;
1995;SDS011;38556;47.068;15.408;2023-08-31T12:29:36;26.93;;;25.13;;
1995;SDS011;38556;47.068;15.408;2023-08-31T12:32:04;26.07;;;24.57;;
1995;SDS011;38556;47.068;15.408;2023-08-31T12:34:31;26.80;;;25.10;;
1995;SDS011;38556;47.068;15.408;2023-08-31T12:36:59;26.53;;;24.93;;
1995;SDS011;38556;47.068;15.408;2023-08-31T12:39:28;26.73;;;25.17;;
1995;SDS011;38556;47.068;15.408;2023-08-31T12:41:57;26.20;;;24.60;;
1995;SDS011;38556;47.068;15.408;2023-08-31T12:44:24;26.70;;;25.10;;
1995;SDS011;38556;47.068;15.408;2023-08-31T12:46:52;26.13;;;24.60;;
1995;SDS011;38556;47.068;15.408;2023-08-31T12:49:20;26.63;;;24.93;;
1995;SDS011;38556;47.068;15.408;2023-08-31T12:51:48;26.10;;;24.43;;
1995;SDS011;38556;47.068;15.408;2023-08-31T12:54:16;26.57;;;24.87;;
1995;SDS011;38556;47.068;15.408;2023-08-31T12:56:44;26.20;;;24.60;;
1995;SDS011;38556;47.068;15.408;2023-08-31T12:59:12;28.83;;;27.03;;
1995;SDS011;38556;47.068;15.408;2023-08-31T13:01:40;28.10;;;26.37;;
1995;SDS011;38556;47.068;15.408;2023-08-31T13:04:07;26.50;;;24.90;;
1995;SDS011;38556;47.068;15.408;2023-08-31T13:06:34;27.20;;;25.40;;
1995;SDS011;38556;47.068;15.408;2023-08-31T13:09:02;28.73;;;26.63;;
1995;SDS011;38556;47.068;15.408;2023-08-31T13:11:31;27.80;;;26.10;;
1995;SDS011;38556;47.068;15.408;2023-08-31T13:13:58;25.70;;;24.20;;
1995;SDS011;38556;47.068;15.408;2023-08-31T13:16:27;25.73;;;24.23;;
1995;SDS011;38556;47.068;15.408;2023-08-31T13:18:54;25.90;;;24.40;;
1995;SDS011;38556;47.068;15.408;2023-08-31T13:21:22;26.80;;;25.30;;
1995;SDS011;38556;47.068;15.408;2023-08-31T13:23:49;27.10;;;25.50;;
1995;SDS011;38556;47.068;15.408;2023-08-31T13:26:16;27.20;;;25.60;;
1995;SDS011;38556;47.068;15.408;2023-08-31T13:28:44;27.40;;;25.80;;
1995;SDS011;38556;47.068;15.408;2023-08-31T13:31:11;27.60;;;26.00;;
1995;SDS011;38556;47.068;15.408;2023-08-31T13:33:41;26.27;;;24.67;;
1995;SDS011;38556;47.068;15.408;2023-08-31T13:36:09;26.80;;;25.20;;
1995;SDS011;38556;47.068;15.408;2023-08-31T13:38:37;26.70;;;25.20;;
1995;SDS011;38556;47.068;15.408;2023-08-31T13:41:04;26.40;;;24.80;;
1995;SDS011;38556;47.068;15.408;2023-08-31T13:43:33;27.00;;;25.40;;
1995;SDS011;38556;47.068;15.408;2023-08-31T13:46:01;26.20;;;24.70;;
1995;SDS011;38556;47.068;15.408;2023-08-31T13:48:29;26.73;;;25.13;;
1995;SDS011;38556;47.068;15.408;2023-08-31T13:50:59;26.43;;;24.93;;
1995;SDS011;38556;47.068;15.408;2023-08-31T13:53:26;27.47;;;25.47;;
1995;SDS011;38556;47.068;15.408;2023-08-31T13:55:54;26.03;;;24.47;;
1995;SDS011;38556;47.068;15.408;2023-08-31T13:58:22;25.97;;;24.47;;
1995;SDS011;38556;47.068;15.408;2023-08-31T14:00:50;27.97;;;26.37;;
1995;SDS011;38556;47.068;15.408;2023-08-31T14:03:17;26.97;;;25.47;;
1995;SDS011;38556;47.068;15.408;2023-08-31T14:05:47;26.40;;;24.90;;
1995;SDS011;38556;47.068;15.408;2023-08-31T14:08:16;27.07;;;25.43;;
1995;SDS011;38556;47.068;15.408;2023-08-31T14:10:44;26.80;;;25.20;;
1995;SDS011;38556;47.068;15.408;2023-08-31T14:13:12;26.30;;;24.50;;
1995;SDS011;38556;47.068;15.408;2023-08-31T14:15:44;27.50;;;25.37;;
1995;SDS011;38556;47.068;15.408;2023-08-31T14:18:11;27.20;;;25.60;;
1995;SDS011;38556;47.068;15.408;2023-08-31T14:20:39;26.10;;;24.60;;
1995;SDS011;38556;47.068;15.408;2023-08-31T14:23:06;26.60;;;24.93;;
1995;SDS011;38556;47.068;15.408;2023-08-31T14:25:37;27.67;;;26.17;;
1995;SDS011;38556;47.068;15.408;2023-08-31T14:28:04;28.03;;;26.23;;